Time;durP1;ratioP1;P1;durP2;ratioP2;P2;SDS_P1;SDS_P2;PMS_P1;PMS_P2;Temp;Humidity;BMP_temperature;BMP_pressure;BME280_temperature;BME280_humidity;BME280_pressure;Samples;Min_cycle;Max_cycle;Signal;HPM_P1;HPM_P2
2023/01/03 00:00:05;;;;;;;2.20;2.00;;;;;;;;;;4532416;28;20040;-58
2023/01/03 00:02:16;;;;;;;2.00;1.80;;;;;;;;;;4531968;28;20121;-59
2023/01/03 00:04:27;;;;;;;2.50;1.90;;;;;;;;;;4541954;28;20041;-59
2023/01/03 00:06:43;;;;;;;1.90;1.70;;;;;;;;;;4529662;28;20125;-59
2023/01/03 00:08:54;;;;;;;1.75;1.63;;;;;;;;;;4531320;28;20073;-59
2023/01/03 00:11:09;;;;;;;2.20;1.90;;;;;;;;;;4532121;28;20037;-59
2023/01/03 00:13:19;;;;;;;2.13;1.90;;;;;;;;;;4533794;28;20043;-58
2023/01/03 00:15:33;;;;;;;2.03;1.90;;;;;;;;;;4530822;28;20044;-59
2023/01/03 00:17:43;;;;;;;2.13;1.92;;;;;;;;;;4541911;28;20051;-59
2023/01/03 00:19:54;;;;;;;1.75;1.65;;;;;;;;;;4531658;28;20040;-58
2023/01/03 00:22:05;;;;;;;2.15;1.95;;;;;;;;;;4530197;28;20763;-59
2023/01/03 00:24:15;;;;;;;2.00;1.83;;;;;;;;;;4536479;28;20033;-58
2023/01/03 00:26:26;;;;;;;2.08;1.88;;;;;;;;;;4530793;28;20512;-58
2023/01/03 00:28:36;;;;;;;2.08;1.90;;;;;;;;;;4529896;28;20118;-58
2023/01/03 00:30:47;;;;;;;1.95;1.85;;;;;;;;;;4539267;28;20045;-58
2023/01/03 00:32:57;;;;;;;2.25;1.90;;;;;;;;;;4531166;28;20021;-59
2023/01/03 00:35:08;;;;;;;2.03;1.83;;;;;;;;;;4534911;28;20052;-59
2023/01/03 00:37:18;;;;;;;2.10;1.80;;;;;;;;;;4530493;28;20037;-59
2023/01/03 00:39:28;;;;;;;2.33;2.00;;;;;;;;;;4539354;28;20045;-59
2023/01/03 00:41:39;;;;;;;2.13;1.90;;;;;;;;;;4530263;28;20065;-59
2023/01/03 00:43:49;;;;;;;1.90;1.70;;;;;;;;;;4539087;28;20104;-58
2023/01/03 00:46:00;;;;;;;1.80;1.70;;;;;;;;;;4530439;28;20044;-59
2023/01/03 00:48:10;;;;;;;1.85;1.75;;;;;;;;;;4530460;28;20098;-58
2023/01/03 00:50:20;;;;;;;1.83;1.63;;;;;;;;;;4530525;28;20107;-58
2023/01/03 00:52:30;;;;;;;1.65;1.55;;;;;;;;;;4530586;28;20036;-59
2023/01/03 00:54:41;;;;;;;1.48;1.38;;;;;;;;;;4529559;28;20045;-59
2023/01/03 00:56:51;;;;;;;1.75;1.58;;;;;;;;;;4532657;28;20033;-59
2023/01/03 00:59:02;;;;;;;1.30;1.20;;;;;;;;;;4529915;28;20045;-59
2023/01/03 01:01:14;;;;;;;1.52;1.42;;;;;;;;;;4538933;28;20107;-59
2023/01/03 01:03:25;;;;;;;1.60;1.38;;;;;;;;;;4529202;28;20041;-58
2023/01/03 01:05:35;;;;;;;1.48;1.30;;;;;;;;;;4530084;28;20034;-58
2023/01/03 01:07:45;;;;;;;1.67;1.50;;;;;;;;;;4529660;28;20506;-59
2023/01/03 01:09:56;;;;;;;1.38;1.27;;;;;;;;;;4529709;28;20051;-59
2023/01/03 01:12:06;;;;;;;1.45;1.23;;;;;;;;;;4530697;28;20045;-59
2023/01/03 01:14:20;;;;;;;1.80;1.70;;;;;;;;;;4528540;28;20072;-58
2023/01/03 01:16:31;;;;;;;1.55;1.45;;;;;;;;;;4529542;28;20033;-59
2023/01/03 01:18:42;;;;;;;1.75;1.65;;;;;;;;;;4528876;28;20080;-59
2023/01/03 01:20:52;;;;;;;1.70;1.58;;;;;;;;;;4528834;28;20040;-59
2023/01/03 01:23:03;;;;;;;2.15;1.92;;;;;;;;;;4530195;28;20032;-59
2023/01/03 01:25:13;;;;;;;1.98;1.63;;;;;;;;;;4533575;28;20494;-59
2023/01/03 01:27:23;;;;;;;2.03;1.70;;;;;;;;;;4529766;28;20030;-59
2023/01/03 01:29:34;;;;;;;2.17;1.70;;;;;;;;;;4528238;28;20048;-59
2023/01/03 01:31:45;;;;;;;1.83;1.63;;;;;;;;;;4530271;28;20037;-58
2023/01/03 01:33:55;;;;;;;1.60;1.50;;;;;;;;;;4539949;28;20044;-59
2023/01/03 01:36:06;;;;;;;1.80;1.60;;;;;;;;;;4529389;28;20025;-59
2023/01/03 01:38:17;;;;;;;1.75;1.40;;;;;;;;;;4529378;28;20532;-58
2023/01/03 01:40:29;;;;;;;1.65;1.55;;;;;;;;;;4530386;28;20021;-59
2023/01/03 01:45:13;;;;;;;1.42;1.33;;;;;;;;;;4532024;28;20037;-59
2023/01/03 01:47:26;;;;;;;2.78;1.67;;;;;;;;;;4546014;28;20055;-59
2023/01/03 01:49:36;;;;;;;1.77;1.60;;;;;;;;;;4529173;28;20037;-60
2023/01/03 01:51:47;;;;;;;1.70;1.60;;;;;;;;;;4538676;28;20037;-59
2023/01/03 01:53:59;;;;;;;1.50;1.40;;;;;;;;;;4528558;28;20025;-59
2023/01/03 01:56:19;;;;;;;1.60;1.50;;;;;;;;;;4529440;28;20608;-60
2023/01/03 01:58:33;;;;;;;1.65;1.45;;;;;;;;;;4529919;28;20036;-59
2023/01/03 02:00:44;;;;;;;1.77;1.60;;;;;;;;;;4529503;28;21091;-59
2023/01/03 02:02:54;;;;;;;2.15;1.70;;;;;;;;;;4528497;28;20045;-59
2023/01/03 02:05:06;;;;;;;1.65;1.55;;;;;;;;;;4529022;28;20033;-62
2023/01/03 02:07:17;;;;;;;1.83;1.55;;;;;;;;;;4529603;28;20136;-58
2023/01/03 02:09:31;;;;;;;1.90;1.60;;;;;;;;;;4537197;28;20048;-59
2023/01/03 02:13:04;;;;;;;2.08;1.88;;;;;;;;;;4529680;28;20128;-59
2023/01/03 02:14:41;;;;;;;2.08;1.67;;;;;;;;;;4528700;28;20034;-59
2023/01/03 02:16:54;;;;;;;1.77;1.65;;;;;;;;;;4528784;28;20632;-59
2023/01/03 02:19:10;;;;;;;1.63;1.52;;;;;;;;;;4529920;28;20800;-60
2023/01/03 02:21:30;;;;;;;2.03;1.70;;;;;;;;;;4529573;28;20054;-59
2023/01/03 02:23:53;;;;;;;1.90;1.70;;;;;;;;;;4529988;28;20032;-59
2023/01/03 02:26:21;;;;;;;2.00;1.80;;;;;;;;;;4530249;28;20032;-59
2023/01/03 02:28:52;;;;;;;2.10;1.80;;;;;;;;;;4543296;28;20090;-59
2023/01/03 02:31:24;;;;;;;2.13;1.90;;;;;;;;;;4518101;28;20615;-58
2023/01/03 02:33:43;;;;;;;2.08;1.80;;;;;;;;;;4531295;28;20537;-59
2023/01/03 02:35:59;;;;;;;2.03;1.83;;;;;;;;;;4527760;28;20029;-58
2023/01/03 02:38:09;;;;;;;1.97;1.83;;;;;;;;;;4539846;28;20056;-58
2023/01/03 02:40:32;;;;;;;2.20;2.00;;;;;;;;;;4528357;28;20052;-59
2023/01/03 02:43:00;;;;;;;2.17;1.98;;;;;;;;;;4544209;28;20052;-59
2023/01/03 02:45:13;;;;;;;1.80;1.70;;;;;;;;;;4529601;28;20268;-58
2023/01/03 02:47:25;;;;;;;1.90;1.80;;;;;;;;;;4531985;28;20975;-58
2023/01/03 02:49:48;;;;;;;1.80;1.70;;;;;;;;;;4529025;28;20036;-58
2023/01/03 02:52:00;;;;;;;1.80;1.70;;;;;;;;;;4538776;28;20048;-58
2023/01/03 02:54:14;;;;;;;2.08;1.85;;;;;;;;;;4527677;28;20037;-60
2023/01/03 02:56:28;;;;;;;1.75;1.65;;;;;;;;;;4528108;28;20051;-58
2023/01/03 02:58:39;;;;;;;2.20;1.70;;;;;;;;;;4527782;28;20021;-59
2023/01/03 03:00:51;;;;;;;2.55;1.88;;;;;;;;;;4529120;28;20760;-60
2023/01/03 03:03:05;;;;;;;2.15;1.50;;;;;;;;;;4527624;28;20044;-58
2023/01/03 03:05:18;;;;;;;1.60;1.50;;;;;;;;;;4527980;28;20544;-59
2023/01/03 03:07:32;;;;;;;1.55;1.33;;;;;;;;;;4529013;28;20029;-58
2023/01/03 03:14:44;;;;;;;1.50;1.40;;;;;;;;;;4529228;28;20033;-58
2023/01/03 03:16:59;;;;;;;1.50;1.40;;;;;;;;;;4528086;28;20152;-59
2023/01/03 03:24:48;;;;;;;1.55;1.38;;;;;;;;;;4538420;28;20690;-59
2023/01/03 03:26:50;;;;;;;1.67;1.40;;;;;;;;;;4529071;28;20044;-59
2023/01/03 03:29:04;;;;;;;1.75;1.40;;;;;;;;;;4530209;28;20600;-59
2023/01/03 03:31:16;;;;;;;1.55;1.40;;;;;;;;;;4541154;28;20839;-59
2023/01/03 03:33:27;;;;;;;1.30;1.20;;;;;;;;;;4532166;28;20032;-59
2023/01/03 03:35:58;;;;;;;1.42;1.33;;;;;;;;;;4531305;28;20147;-58
2023/01/03 03:38:10;;;;;;;1.30;1.20;;;;;;;;;;4532233;28;21331;-58
2023/01/03 03:45:38;;;;;;;1.42;1.30;;;;;;;;;;4530531;28;20033;-62
2023/01/03 03:47:48;;;;;;;1.65;1.38;;;;;;;;;;4531763;28;20069;-59
2023/01/03 03:50:01;;;;;;;1.67;1.30;;;;;;;;;;4539357;28;20160;-58
2023/01/03 03:52:14;;;;;;;1.88;1.20;;;;;;;;;;4531606;28;20148;-59
2023/01/03 03:54:24;;;;;;;1.45;1.30;;;;;;;;;;4531402;28;20033;-58
2023/01/03 03:56:35;;;;;;;1.52;1.17;;;;;;;;;;4540481;28;20064;-58
2023/01/03 03:58:48;;;;;;;2.20;1.40;;;;;;;;;;4530795;28;20084;-58
2023/01/03 04:00:59;;;;;;;1.50;1.20;;;;;;;;;;4532713;28;20132;-59
2023/01/03 04:03:11;;;;;;;1.33;1.20;;;;;;;;;;4533384;28;20694;-59
2023/01/03 04:05:22;;;;;;;1.10;1.00;;;;;;;;;;4532090;28;20032;-59
2023/01/03 04:07:33;;;;;;;1.50;1.30;;;;;;;;;;4530636;28;20595;-59
2023/01/03 04:09:44;;;;;;;1.83;1.20;;;;;;;;;;4530735;28;20029;-58
2023/01/03 04:11:54;;;;;;;1.40;1.27;;;;;;;;;;4531358;28;20037;-60
2023/01/03 04:14:04;;;;;;;1.52;1.42;;;;;;;;;;4530031;28;20056;-58
2023/01/03 04:16:15;;;;;;;1.23;1.13;;;;;;;;;;4531866;28;20056;-58
2023/01/03 04:18:25;;;;;;;1.00;0.90;;;;;;;;;;4530355;28;20033;-59
2023/01/03 04:20:35;;;;;;;1.17;1.08;;;;;;;;;;4530600;28;20759;-59
2023/01/03 04:22:46;;;;;;;1.83;1.17;;;;;;;;;;4530716;28;20052;-59
2023/01/03 04:24:56;;;;;;;1.10;1.00;;;;;;;;;;4535718;28;20045;-61
2023/01/03 04:27:06;;;;;;;1.50;1.10;;;;;;;;;;4531316;28;20513;-59
2023/01/03 04:29:17;;;;;;;1.27;1.02;;;;;;;;;;4530945;28;20037;-60
2023/01/03 04:31:27;;;;;;;1.45;1.10;;;;;;;;;;4530559;28;20134;-59
2023/01/03 04:33:37;;;;;;;1.15;1.05;;;;;;;;;;4530626;28;20144;-59
2023/01/03 04:35:47;;;;;;;1.27;1.00;;;;;;;;;;4530212;28;20501;-58
2023/01/03 04:37:58;;;;;;;1.08;1.00;;;;;;;;;;4529828;28;20905;-59
2023/01/03 04:40:08;;;;;;;2.10;1.20;;;;;;;;;;4538280;28;20598;-59
2023/01/03 04:44:47;;;;;;;1.00;0.90;;;;;;;;;;4539382;28;20037;-59
2023/01/03 04:46:58;;;;;;;1.10;1.00;;;;;;;;;;4529860;28;20045;-59
2023/01/03 04:49:09;;;;;;;1.83;1.10;;;;;;;;;;4530794;28;20037;-59
2023/01/03 04:51:19;;;;;;;1.00;0.90;;;;;;;;;;4530650;28;20136;-58
2023/01/03 04:53:29;;;;;;;1.40;1.17;;;;;;;;;;4534144;28;20041;-58
2023/01/03 04:55:44;;;;;;;1.20;1.10;;;;;;;;;;4530564;28;20124;-59
2023/01/03 04:57:55;;;;;;;1.20;1.10;;;;;;;;;;4531608;28;20065;-59
2023/01/03 05:00:05;;;;;;;1.25;1.05;;;;;;;;;;4531044;28;20068;-60
2023/01/03 05:02:16;;;;;;;1.00;0.90;;;;;;;;;;4530162;28;20050;-59
2023/01/03 05:04:27;;;;;;;1.85;1.00;;;;;;;;;;4531979;28;20025;-59
2023/01/03 05:06:38;;;;;;;1.10;1.00;;;;;;;;;;4538983;28;20065;-58
2023/01/03 05:08:49;;;;;;;1.40;1.10;;;;;;;;;;4530799;28;20101;-59
2023/01/03 05:11:00;;;;;;;1.38;1.08;;;;;;;;;;4534728;28;20037;-59
2023/01/03 05:13:10;;;;;;;1.08;0.98;;;;;;;;;;4529039;28;20496;-58
2023/01/03 05:15:21;;;;;;;1.42;1.10;;;;;;;;;;4532715;28;20041;-58
2023/01/03 05:17:31;;;;;;;1.33;0.98;;;;;;;;;;4530945;28;20024;-60
2023/01/03 05:27:08;;;;;;;1.27;1.10;;;;;;;;;;4530241;28;20029;-59
2023/01/03 05:29:19;;;;;;;1.58;1.17;;;;;;;;;;4538075;28;20405;-59
2023/01/03 05:31:30;;;;;;;1.33;1.23;;;;;;;;;;4530466;28;20044;-59
2023/01/03 05:33:40;;;;;;;1.30;1.20;;;;;;;;;;4529676;28;20041;-59
2023/01/03 05:35:50;;;;;;;1.20;1.10;;;;;;;;;;4530260;28;20522;-59
2023/01/03 05:38:01;;;;;;;1.30;1.00;;;;;;;;;;4529050;28;20041;-59
2023/01/03 05:40:11;;;;;;;1.30;1.20;;;;;;;;;;4530037;28;20045;-59
2023/01/03 05:42:21;;;;;;;1.17;1.08;;;;;;;;;;4532686;28;20738;-59
2023/01/03 05:44:32;;;;;;;1.00;0.90;;;;;;;;;;4529387;28;20037;-59
2023/01/03 05:46:43;;;;;;;1.42;1.15;;;;;;;;;;4537766;28;20152;-59
2023/01/03 05:48:53;;;;;;;1.20;1.10;;;;;;;;;;4528784;28;20040;-59
2023/01/03 05:51:04;;;;;;;1.60;1.05;;;;;;;;;;4528368;28;20056;-59
2023/01/03 05:53:15;;;;;;;1.25;1.05;;;;;;;;;;4529921;28;20025;-59
2023/01/03 05:55:25;;;;;;;1.13;0.95;;;;;;;;;;4528789;28;20555;-59
2023/01/03 05:57:35;;;;;;;1.30;1.20;;;;;;;;;;4529890;28;20440;-59
2023/01/03 05:59:46;;;;;;;1.52;1.10;;;;;;;;;;4530279;28;20454;-59
2023/01/03 06:01:57;;;;;;;1.20;1.10;;;;;;;;;;4529623;28;20171;-59
2023/01/03 06:04:07;;;;;;;0.90;0.90;;;;;;;;;;4529041;28;20096;-58
2023/01/03 06:06:17;;;;;;;0.90;0.90;;;;;;;;;;4534763;28;20037;-58
2023/01/03 06:08:28;;;;;;;1.40;1.20;;;;;;;;;;4529518;28;20025;-59
2023/01/03 06:10:39;;;;;;;1.10;1.00;;;;;;;;;;4529401;28;20036;-59
2023/01/03 06:12:49;;;;;;;1.05;0.95;;;;;;;;;;4530630;28;20120;-61
2023/01/03 06:15:00;;;;;;;1.08;0.98;;;;;;;;;;4529570;28;20037;-58
2023/01/03 06:19:39;;;;;;;1.05;0.95;;;;;;;;;;4529437;28;20203;-59
2023/01/03 06:21:49;;;;;;;1.25;1.00;;;;;;;;;;4530655;28;20037;-59
2023/01/03 06:23:59;;;;;;;1.20;0.95;;;;;;;;;;4527644;28;20033;-59
2023/01/03 06:26:10;;;;;;;0.95;0.85;;;;;;;;;;4527865;28;20110;-59
2023/01/03 06:28:20;;;;;;;1.02;0.90;;;;;;;;;;4537374;28;20036;-59
2023/01/03 06:30:30;;;;;;;1.00;0.88;;;;;;;;;;4529134;28;20559;-59
2023/01/03 06:32:41;;;;;;;0.98;0.80;;;;;;;;;;4530319;28;20149;-60
2023/01/03 06:34:52;;;;;;;1.10;1.00;;;;;;;;;;4537213;28;20040;-59
2023/01/03 06:37:02;;;;;;;1.20;1.10;;;;;;;;;;4529048;28;20041;-59
2023/01/03 06:39:12;;;;;;;1.05;0.90;;;;;;;;;;4528965;28;20037;-59
2023/01/03 06:41:22;;;;;;;0.82;0.80;;;;;;;;;;4532135;28;20048;-59
2023/01/03 06:43:33;;;;;;;1.38;0.90;;;;;;;;;;4530517;28;20500;-59
2023/01/03 06:53:12;;;;;;;0.80;0.80;;;;;;;;;;4530534;28;20034;-59
2023/01/03 06:55:23;;;;;;;1.10;0.85;;;;;;;;;;4533012;28;21333;-59
2023/01/03 06:57:33;;;;;;;1.10;0.90;;;;;;;;;;4538404;28;20037;-59
2023/01/03 06:59:43;;;;;;;1.02;0.90;;;;;;;;;;4529152;28;20041;-58
2023/01/03 07:01:54;;;;;;;0.80;0.80;;;;;;;;;;4528497;28;20116;-60
2023/01/03 07:04:04;;;;;;;1.20;0.93;;;;;;;;;;4530435;28;20098;-59
2023/01/03 07:06:15;;;;;;;0.82;0.80;;;;;;;;;;4529881;28;20040;-61
2023/01/03 07:08:25;;;;;;;0.88;0.82;;;;;;;;;;4528703;28;20493;-58
2023/01/03 07:10:35;;;;;;;1.30;0.98;;;;;;;;;;4529876;28;20128;-60
2023/01/03 07:15:14;;;;;;;1.40;1.00;;;;;;;;;;4527535;28;20030;-59
2023/01/03 07:17:25;;;;;;;1.33;1.10;;;;;;;;;;4529416;28;20485;-59
2023/01/03 07:19:35;;;;;;;1.23;0.98;;;;;;;;;;4529107;28;20041;-59
2023/01/03 07:21:45;;;;;;;1.35;1.00;;;;;;;;;;4528317;28;20054;-58
2023/01/03 07:23:56;;;;;;;0.70;0.70;;;;;;;;;;4528372;28;20116;-59
2023/01/03 07:26:07;;;;;;;0.77;0.73;;;;;;;;;;4529335;28;20718;-59
2023/01/03 07:28:18;;;;;;;1.20;0.77;;;;;;;;;;4528575;28;20038;-59
2023/01/03 07:30:28;;;;;;;1.02;0.93;;;;;;;;;;4537427;28;20037;-58
2023/01/03 07:32:38;;;;;;;0.80;0.80;;;;;;;;;;4529469;28;20084;-58
2023/01/03 07:34:49;;;;;;;1.08;0.88;;;;;;;;;;4531204;28;20087;-59
2023/01/03 07:37:01;;;;;;;0.80;0.80;;;;;;;;;;4538596;28;20041;-59
2023/01/03 07:39:11;;;;;;;0.90;0.90;;;;;;;;;;4525522;28;20048;-59
2023/01/03 07:41:24;;;;;;;0.80;0.80;;;;;;;;;;4528840;28;20091;-61
2023/01/03 07:43:37;;;;;;;1.08;0.98;;;;;;;;;;4529059;28;20335;-60
2023/01/03 07:45:48;;;;;;;1.17;1.08;;;;;;;;;;4527179;28;20091;-64
2023/01/03 07:47:58;;;;;;;1.30;1.13;;;;;;;;;;4536338;28;20035;-62
2023/01/03 07:50:08;;;;;;;1.15;0.98;;;;;;;;;;4527247;28;20048;-58
2023/01/03 07:52:19;;;;;;;1.20;1.00;;;;;;;;;;4528429;28;20570;-58
2023/01/03 07:54:29;;;;;;;1.13;1.02;;;;;;;;;;4530364;28;20087;-59
2023/01/03 07:56:39;;;;;;;1.25;1.15;;;;;;;;;;4526018;28;20065;-59
2023/01/03 07:58:50;;;;;;;1.15;1.05;;;;;;;;;;4535383;28;20040;-59
2023/01/03 08:01:11;;;;;;;1.30;1.20;;;;;;;;;;4525495;28;20092;-59
2023/01/03 08:03:21;;;;;;;1.00;0.90;;;;;;;;;;4527117;28;20047;-59
2023/01/03 08:05:33;;;;;;;1.13;1.00;;;;;;;;;;4534439;28;20043;-59
2023/01/03 08:07:43;;;;;;;1.50;1.10;;;;;;;;;;4525475;28;20724;-59
2023/01/03 08:14:51;;;;;;;1.08;0.98;;;;;;;;;;4527958;28;20670;-59
2023/01/03 08:17:02;;;;;;;0.80;0.80;;;;;;;;;;4536792;28;20191;-59
2023/01/03 08:19:12;;;;;;;1.48;0.88;;;;;;;;;;4529085;28;20148;-59
2023/01/03 08:21:22;;;;;;;0.90;0.90;;;;;;;;;;4533103;28;20755;-59
2023/01/03 08:23:33;;;;;;;0.90;0.90;;;;;;;;;;4532932;28;20179;-59
2023/01/03 08:25:43;;;;;;;1.05;0.93;;;;;;;;;;4532682;28;20491;-60
2023/01/03 08:27:56;;;;;;;1.15;1.05;;;;;;;;;;4538767;28;20626;-60
2023/01/03 08:30:07;;;;;;;1.13;1.02;;;;;;;;;;4529654;28;20768;-61
2023/01/03 08:32:17;;;;;;;1.10;1.00;;;;;;;;;;4532470;28;20114;-61
2023/01/03 08:34:30;;;;;;;1.30;1.08;;;;;;;;;;4530030;28;20018;-61
2023/01/03 08:36:44;;;;;;;1.38;1.23;;;;;;;;;;4527712;28;20611;-61
2023/01/03 08:39:01;;;;;;;1.42;1.17;;;;;;;;;;4537425;28;20630;-59
2023/01/03 08:41:13;;;;;;;1.20;1.10;;;;;;;;;;4538588;28;20481;-64
2023/01/03 08:43:24;;;;;;;1.08;1.00;;;;;;;;;;4521152;28;20045;-59
2023/01/03 08:45:34;;;;;;;1.15;1.08;;;;;;;;;;4533576;28;20045;-60
2023/01/03 08:47:45;;;;;;;1.10;1.10;;;;;;;;;;4528216;28;20126;-60
2023/01/03 08:49:56;;;;;;;1.98;1.20;;;;;;;;;;4531751;28;20211;-61
2023/01/03 08:52:06;;;;;;;1.10;1.00;;;;;;;;;;4537527;28;20044;-60
2023/01/03 08:54:17;;;;;;;1.33;1.10;;;;;;;;;;4530096;28;20509;-60
2023/01/03 08:56:27;;;;;;;1.35;1.20;;;;;;;;;;4528736;28;20036;-60
2023/01/03 08:58:38;;;;;;;1.20;1.10;;;;;;;;;;4537881;28;20045;-60
2023/01/03 09:00:48;;;;;;;1.10;1.00;;;;;;;;;;4529987;28;20034;-60
2023/01/03 09:02:59;;;;;;;1.00;0.90;;;;;;;;;;4529475;28;20034;-60
2023/01/03 09:05:09;;;;;;;1.05;1.00;;;;;;;;;;4531284;28;20029;-59
2023/01/03 09:07:19;;;;;;;1.92;1.02;;;;;;;;;;4527893;28;20052;-60
2023/01/03 09:09:30;;;;;;;1.10;1.00;;;;;;;;;;4531201;28;20041;-60
2023/01/03 09:11:40;;;;;;;1.27;1.17;;;;;;;;;;4532351;28;20038;-61
2023/01/03 09:13:50;;;;;;;1.33;1.20;;;;;;;;;;4528692;28;20041;-60
2023/01/03 09:16:01;;;;;;;1.58;1.27;;;;;;;;;;4538167;28;20025;-60
2023/01/03 09:18:11;;;;;;;1.58;1.30;;;;;;;;;;4528673;28;20365;-61
2023/01/03 09:20:22;;;;;;;1.40;1.30;;;;;;;;;;4530479;28;20421;-61
2023/01/03 09:22:32;;;;;;;1.75;1.38;;;;;;;;;;4533686;28;20029;-61
2023/01/03 09:24:42;;;;;;;1.40;1.30;;;;;;;;;;4531085;28;20065;-61
2023/01/03 09:26:53;;;;;;;1.38;1.20;;;;;;;;;;4528168;28;20084;-61
2023/01/03 09:29:03;;;;;;;1.35;1.23;;;;;;;;;;4528575;28;20037;-61
2023/01/03 09:31:13;;;;;;;1.52;1.20;;;;;;;;;;4527407;28;20044;-60
2023/01/03 09:33:24;;;;;;;1.40;1.20;;;;;;;;;;4528657;28;20033;-61
2023/01/03 09:35:34;;;;;;;1.42;1.20;;;;;;;;;;4527249;28;20041;-61
2023/01/03 09:37:48;;;;;;;1.50;1.30;;;;;;;;;;4531850;28;20032;-60
2023/01/03 09:39:58;;;;;;;1.30;1.20;;;;;;;;;;4529536;28;20681;-60
2023/01/03 09:44:45;;;;;;;1.40;1.20;;;;;;;;;;4531053;28;20069;-61
2023/01/03 09:46:55;;;;;;;1.92;1.33;;;;;;;;;;4529871;28;20132;-62
2023/01/03 09:49:06;;;;;;;1.25;1.15;;;;;;;;;;4529730;28;20044;-62
2023/01/03 10:03:50;;;;;;;1.10;1.08;;;;;;;;;;4529361;28;20037;-62
2023/01/03 10:06:07;;;;;;;1.20;1.10;;;;;;;;;;4540137;28;20575;-61
2023/01/03 10:08:17;;;;;;;;;;;;;;;;;;4528754;28;20130;-60
2023/01/03 10:10:27;;;;;;;1.52;0.90;;;;;;;;;;4529868;28;20388;-61
2023/01/03 10:12:47;;;;;;;1.25;1.00;;;;;;;;;;4528000;28;20457;-61
2023/01/03 10:15:09;;;;;;;0.88;0.70;;;;;;;;;;4527778;28;20085;-61
2023/01/03 10:17:36;;;;;;;1.05;0.80;;;;;;;;;;4542985;28;20738;-61
2023/01/03 10:20:02;;;;;;;0.80;0.77;;;;;;;;;;4526054;28;20087;-61
2023/01/03 10:22:17;;;;;;;1.58;0.75;;;;;;;;;;4529061;28;20050;-61
2023/01/03 10:24:30;;;;;;;0.75;0.68;;;;;;;;;;4529264;28;20033;-61
2023/01/03 10:26:41;;;;;;;0.60;0.60;;;;;;;;;;4527141;28;21004;-61
2023/01/03 10:28:52;;;;;;;0.90;0.80;;;;;;;;;;4529010;28;20044;-61
2023/01/03 10:31:22;;;;;;;1.10;0.80;;;;;;;;;;4538233;28;20036;-61
2023/01/03 10:33:36;;;;;;;0.93;0.70;;;;;;;;;;4529622;28;20694;-61
2023/01/03 10:35:46;;;;;;;0.60;0.60;;;;;;;;;;4528429;28;20025;-60
2023/01/03 10:37:57;;;;;;;1.00;0.70;;;;;;;;;;4527628;28;20457;-61
2023/01/03 10:40:08;;;;;;;1.17;0.60;;;;;;;;;;4529390;28;20041;-61
2023/01/03 10:42:19;;;;;;;0.95;0.65;;;;;;;;;;4534450;28;20041;-59
2023/01/03 10:44:31;;;;;;;1.00;0.70;;;;;;;;;;4531433;28;20025;-61
2023/01/03 10:46:48;;;;;;;0.70;0.70;;;;;;;;;;4530960;28;20045;-60
2023/01/03 10:49:13;;;;;;;1.27;0.73;;;;;;;;;;4528836;28;20113;-61
2023/01/03 10:51:47;;;;;;;0.60;0.60;;;;;;;;;;4539847;28;20045;-60
2023/01/03 10:53:58;;;;;;;1.20;1.00;;;;;;;;;;4529351;28;20048;-61
2023/01/03 10:56:13;;;;;;;1.50;1.35;;;;;;;;;;4529375;28;20060;-60
2023/01/03 10:58:26;;;;;;;0.75;0.68;;;;;;;;;;4528017;28;20526;-61
2023/01/03 11:00:37;;;;;;;0.80;0.75;;;;;;;;;;4528350;28;20049;-61
2023/01/03 11:02:48;;;;;;;0.55;0.55;;;;;;;;;;4529517;28;20045;-61
2023/01/03 11:05:11;;;;;;;0.73;0.60;;;;;;;;;;4521511;28;20048;-61
2023/01/03 11:07:21;;;;;;;0.77;0.60;;;;;;;;;;4530263;28;20041;-60
2023/01/03 11:09:41;;;;;;;0.80;0.63;;;;;;;;;;4537443;28;20033;-60
2023/01/03 11:11:52;;;;;;;1.02;0.50;;;;;;;;;;4528315;28;20048;-60
2023/01/03 11:14:08;;;;;;;0.63;0.63;;;;;;;;;;4537320;28;20099;-60
2023/01/03 11:16:19;;;;;;;0.80;0.70;;;;;;;;;;4528220;28;20033;-60
2023/01/03 11:18:30;;;;;;;1.02;0.65;;;;;;;;;;4528614;28;20446;-60
2023/01/03 11:20:52;;;;;;;0.60;0.60;;;;;;;;;;4510143;28;20038;-61
2023/01/03 11:23:07;;;;;;;0.60;0.60;;;;;;;;;;4536782;28;20056;-60
2023/01/03 11:25:31;;;;;;;0.60;0.60;;;;;;;;;;4535616;28;20033;-60
2023/01/03 11:28:00;;;;;;;1.17;0.80;;;;;;;;;;4528502;28;20100;-60
2023/01/03 11:30:16;;;;;;;0.75;0.70;;;;;;;;;;4527365;28;20029;-62
2023/01/03 11:32:29;;;;;;;0.60;0.60;;;;;;;;;;4542517;28;20599;-60
2023/01/03 11:34:58;;;;;;;0.40;0.40;;;;;;;;;;4527711;28;20069;-60
2023/01/03 11:37:32;;;;;;;0.50;0.50;;;;;;;;;;4536566;28;20056;-60
2023/01/03 11:40:01;;;;;;;1.42;0.60;;;;;;;;;;4529021;28;21062;-60
2023/01/03 11:42:31;;;;;;;0.70;0.65;;;;;;;;;;4536587;28;20045;-60
2023/01/03 11:44:42;;;;;;;0.55;0.55;;;;;;;;;;4507563;28;20112;-60
2023/01/03 11:47:00;;;;;;;1.05;0.50;;;;;;;;;;4527004;28;20619;-61
2023/01/03 11:49:27;;;;;;;0.60;0.60;;;;;;;;;;4529439;28;20045;-61
2023/01/03 11:51:54;;;;;;;1.02;0.70;;;;;;;;;;4537755;28;20893;-61
2023/01/03 11:54:07;;;;;;;0.63;0.60;;;;;;;;;;4529898;28;20040;-61
2023/01/03 11:56:35;;;;;;;0.68;0.60;;;;;;;;;;4531080;28;20715;-61
2023/01/03 11:58:46;;;;;;;0.75;0.63;;;;;;;;;;4529048;28;20025;-60
2023/01/03 12:01:10;;;;;;;0.60;0.60;;;;;;;;;;4546080;28;20236;-61
2023/01/03 12:03:45;;;;;;;0.60;0.60;;;;;;;;;;4532447;28;20682;-61
2023/01/03 12:05:55;;;;;;;0.65;0.55;;;;;;;;;;4530406;28;20140;-61
2023/01/03 12:08:11;;;;;;;0.60;0.50;;;;;;;;;;4531024;28;20044;-61
2023/01/03 12:10:24;;;;;;;0.80;0.60;;;;;;;;;;4546037;28;20332;-60
2023/01/03 12:12:54;;;;;;;0.57;0.50;;;;;;;;;;4538498;28;20530;-59
2023/01/03 12:15:16;;;;;;;0.68;0.50;;;;;;;;;;4529459;28;20563;-60
2023/01/03 12:17:37;;;;;;;0.68;0.50;;;;;;;;;;4528722;28;20096;-60
2023/01/03 12:19:58;;;;;;;0.60;0.60;;;;;;;;;;4528023;28;20025;-61
2023/01/03 12:22:15;;;;;;;1.02;0.50;;;;;;;;;;4530749;28;20592;-60
2023/01/03 12:24:38;;;;;;;0.68;0.60;;;;;;;;;;4531162;28;20040;-61
2023/01/03 12:26:54;;;;;;;0.60;0.60;;;;;;;;;;4541749;28;20127;-60
2023/01/03 12:29:09;;;;;;;0.77;0.60;;;;;;;;;;4538389;28;21247;-60
2023/01/03 12:31:25;;;;;;;1.55;0.65;;;;;;;;;;4529121;28;20996;-60
2023/01/03 12:33:41;;;;;;;0.60;0.57;;;;;;;;;;4538878;28;20037;-61
2023/01/03 12:35:58;;;;;;;0.60;0.60;;;;;;;;;;4513602;28;20049;-60
2023/01/03 12:38:08;;;;;;;0.50;0.50;;;;;;;;;;4529311;28;20104;-60
2023/01/03 12:40:45;;;;;;;1.00;0.60;;;;;;;;;;4531102;28;20413;-61
2023/01/03 12:43:04;;;;;;;0.50;0.40;;;;;;;;;;4533439;28;20608;-61
2023/01/03 12:45:23;;;;;;;0.60;0.60;;;;;;;;;;4528273;28;20663;-60
2023/01/03 12:47:39;;;;;;;1.02;0.70;;;;;;;;;;4528356;28;20038;-61
2023/01/03 12:49:54;;;;;;;0.60;0.55;;;;;;;;;;4528141;28;20033;-63
2023/01/03 12:52:08;;;;;;;0.65;0.55;;;;;;;;;;4545355;28;20141;-62
2023/01/03 12:54:37;;;;;;;0.77;0.68;;;;;;;;;;4528474;28;20037;-61
2023/01/03 12:56:52;;;;;;;0.73;0.70;;;;;;;;;;4529572;28;20040;-62
2023/01/03 12:59:05;;;;;;;0.60;0.60;;;;;;;;;;4529638;28;20048;-64
2023/01/03 13:01:20;;;;;;;0.77;0.50;;;;;;;;;;4528199;28;20592;-61
2023/01/03 13:03:39;;;;;;;0.77;0.57;;;;;;;;;;4529426;28;20149;-60
2023/01/03 13:05:53;;;;;;;0.75;0.68;;;;;;;;;;4530768;28;20103;-62
2023/01/03 13:08:11;;;;;;;0.90;0.70;;;;;;;;;;4530335;28;20038;-61
2023/01/03 13:10:24;;;;;;;1.00;0.65;;;;;;;;;;4527828;28;20112;-60
2023/01/03 13:12:38;;;;;;;0.63;0.63;;;;;;;;;;4529059;28;20025;-60
2023/01/03 13:15:07;;;;;;;0.77;0.68;;;;;;;;;;4528910;28;20084;-60
2023/01/03 13:17:18;;;;;;;0.90;0.55;;;;;;;;;;4529403;28;20598;-60
2023/01/03 13:19:35;;;;;;;0.88;0.68;;;;;;;;;;4535636;28;20041;-60
2023/01/03 13:21:50;;;;;;;1.08;0.80;;;;;;;;;;4528679;28;20037;-60
2023/01/03 13:24:00;;;;;;;0.80;0.52;;;;;;;;;;4538528;28;20045;-60
2023/01/03 13:26:26;;;;;;;0.65;0.65;;;;;;;;;;4528306;28;20049;-61
2023/01/03 13:28:37;;;;;;;1.40;0.75;;;;;;;;;;4527975;28;20040;-60
2023/01/03 13:30:48;;;;;;;0.60;0.50;;;;;;;;;;4529276;28;20084;-60
2023/01/03 13:33:10;;;;;;;0.65;0.65;;;;;;;;;;4530877;28;20382;-60
2023/01/03 13:35:31;;;;;;;0.90;0.60;;;;;;;;;;4528165;28;20551;-60
2023/01/03 13:37:53;;;;;;;0.63;0.60;;;;;;;;;;4530182;28;20524;-60
2023/01/03 13:40:16;;;;;;;0.65;0.57;;;;;;;;;;4529779;28;21250;-61
2023/01/03 13:42:29;;;;;;;0.57;0.57;;;;;;;;;;4527676;28;20049;-61
2023/01/03 13:44:40;;;;;;;1.00;0.73;;;;;;;;;;4521489;28;20037;-60
2023/01/03 13:46:50;;;;;;;0.60;0.60;;;;;;;;;;4538388;28;20041;-61
2023/01/03 13:49:03;;;;;;;1.08;0.70;;;;;;;;;;4528032;28;20030;-61
2023/01/03 13:51:13;;;;;;;0.70;0.70;;;;;;;;;;4529460;28;20042;-60
2023/01/03 13:53:23;;;;;;;1.48;0.60;;;;;;;;;;4536328;28;20489;-61
2023/01/03 13:55:34;;;;;;;0.57;0.57;;;;;;;;;;4528775;28;20060;-61
2023/01/03 13:57:52;;;;;;;0.90;0.68;;;;;;;;;;4529388;28;20024;-60
2023/01/03 14:00:08;;;;;;;0.95;0.80;;;;;;;;;;4529348;28;20488;-60
2023/01/03 14:02:43;;;;;;;0.52;0.52;;;;;;;;;;4525121;28;20098;-60
2023/01/03 14:05:05;;;;;;;0.88;0.80;;;;;;;;;;4543887;28;20033;-61
2023/01/03 14:07:35;;;;;;;1.08;0.95;;;;;;;;;;4528655;28;20099;-60
2023/01/03 14:09:57;;;;;;;1.08;0.77;;;;;;;;;;4527322;28;20045;-62
2023/01/03 14:12:43;;;;;;;1.00;0.95;;;;;;;;;;4526344;28;20822;-60
2023/01/03 14:14:54;;;;;;;1.85;0.90;;;;;;;;;;4498366;28;20212;-61
2023/01/03 14:17:13;;;;;;;0.82;0.60;;;;;;;;;;4518891;28;20354;-61
2023/01/03 14:19:34;;;;;;;1.25;0.70;;;;;;;;;;4515150;28;20037;-60
2023/01/03 14:22:04;;;;;;;0.82;0.60;;;;;;;;;;4536716;28;20814;-63